Salamonie, Indiana
Current Conditions -  °F | °C
As of 5:15 PM on Monday 24 Nov 2014 (Local Time) from KHHG Reporting Station
Overcast Overcast  
Wind Chill: 22°   Ceiling: 2300
Heat Index: 35°   Visibility: 10mi
Dew Point: 29°   Wind: 26mph
Humidity: 78%   Direction: 240°WSW
Pressure: 29.65"   Gusts: 35mph
Location:  40.6897°N, 85.3916°W
Report Text: KHHG 242215Z AUTO 24023G30KT 10SM BKN023 OVC028 02/M02 A2965 RMK AO2 T00151019
Loading
Personal Weather Stations






























Interactive Weather Map New forecast layout! Learn more

10-Day Weather Forecast

Advertisements
Track Severe Weather on mobile